Time;durP1;ratioP1;P1;durP2;ratioP2;P2;SDS_P1;SDS_P2;PMS_P1;PMS_P2;Temp;Humidity;BMP_temperature;BMP_pressure;BME280_temperature;BME280_humidity;BME280_pressure;Samples;Min_cycle;Max_cycle;Signal;HPM_P1;HPM_P2
2023/11/20 00:01:34;;;;;;;7.90;4.75;;;;;;;3.28;92.49;100285.09;5010639;28;20053;-67
2023/11/20 00:04:01;;;;;;;6.63;4.63;;;;;;;3.67;92.65;100362.44;5010778;28;20060;-69
2023/11/20 00:06:27;;;;;;;6.82;4.40;;;;;;;3.69;93.00;100366.84;5010746;28;20492;-69
2023/11/20 00:08:53;;;;;;;8.05;5.00;;;;;;;3.66;91.57;100364.09;5010100;28;20149;-69
2023/11/20 00:11:19;;;;;;;7.75;4.32;;;;;;;3.69;92.23;100369.41;5010456;28;20504;-69
2023/11/20 00:13:45;;;;;;;5.72;4.20;;;;;;;3.60;92.10;100352.63;5010746;28;20030;-69
2023/11/20 00:16:11;;;;;;;9.88;4.55;;;;;;;3.63;92.11;100374.13;5010778;28;20038;-69
2023/11/20 00:18:38;;;;;;;8.50;5.55;;;;;;;3.54;91.94;100365.91;5008229;28;20735;-70
2023/11/20 00:21:03;;;;;;;7.90;5.47;;;;;;;3.56;92.16;100359.19;5010801;28;20095;-70
2023/11/20 00:23:29;;;;;;;6.93;4.10;;;;;;;3.59;91.98;100361.06;5010448;28;20022;-71
2023/11/20 00:25:54;;;;;;;9.68;4.93;;;;;;;3.51;91.39;100358.91;5010319;28;20065;-69
2023/11/20 00:28:20;;;;;;;7.03;4.72;;;;;;;3.51;91.31;100368.25;5006029;28;20034;-70
2023/11/20 00:30:45;;;;;;;13.77;6.07;;;;;;;3.42;92.10;100370.22;5003541;28;20033;-67
2023/11/20 00:33:11;;;;;;;8.07;4.85;;;;;;;3.20;92.50;100346.75;4994331;28;20034;-70
2023/11/20 00:35:36;;;;;;;7.07;4.70;;;;;;;3.25;92.36;100367.44;5000439;28;20034;-68
2023/11/20 00:38:03;;;;;;;7.22;4.95;;;;;;;3.38;93.11;100377.66;5008445;28;20034;-68
2023/11/20 00:40:28;;;;;;;7.82;5.15;;;;;;;3.34;92.99;100382.47;5009595;28;20103;-72
2023/11/20 00:42:54;;;;;;;7.57;4.88;;;;;;;3.11;93.56;100355.47;5010451;28;20026;-70
2023/11/20 00:45:19;;;;;;;8.27;5.05;;;;;;;3.14;94.28;100383.72;5009639;28;20160;-69
2023/11/20 00:47:45;;;;;;;8.70;5.38;;;;;;;3.01;94.80;100375.28;5009324;28;20030;-70
2023/11/20 00:50:10;;;;;;;8.82;5.18;;;;;;;2.43;95.26;100306.91;5010067;28;20030;-67
2023/11/20 00:52:36;;;;;;;7.93;5.35;;;;;;;2.69;96.29;100383.34;5010424;28;20026;-68
2023/11/20 00:55:09;;;;;;;7.25;4.90;;;;;;;2.61;97.16;100382.81;5009484;28;20489;-68
2023/11/20 00:57:39;;;;;;;8.05;4.90;;;;;;;2.53;97.50;100389.06;5009819;28;20040;-69
2023/11/20 01:00:06;;;;;;;11.50;6.72;;;;;;;2.47;98.18;100383.53;5009290;28;20026;-68
2023/11/20 01:02:32;;;;;;;10.55;6.80;;;;;;;2.36;98.60;100387.94;5009242;28;20518;-68
2023/11/20 01:04:58;;;;;;;11.73;7.18;;;;;;;2.06;100.00;100360.44;5009933;28;20455;-71
2023/11/20 01:07:23;;;;;;;15.30;7.13;;;;;;;2.14;100.00;100370.28;5009412;28;20026;-67
2023/11/20 01:09:49;;;;;;;10.57;7.50;;;;;;;2.18;100.00;100373.16;5010094;28;20096;-68
2023/11/20 01:12:15;;;;;;;12.40;7.68;;;;;;;2.31;100.00;100392.69;5009741;28;20036;-68
2023/11/20 01:14:40;;;;;;;12.50;8.55;;;;;;;2.28;100.00;100387.41;5009475;28;20040;-71
2023/11/20 01:17:06;;;;;;;15.38;9.20;;;;;;;2.31;100.00;100379.97;5009310;28;20034;-67
2023/11/20 01:19:31;;;;;;;15.82;9.15;;;;;;;2.36;100.00;100380.28;5009781;28;20042;-68
2023/11/20 01:21:57;;;;;;;12.85;7.30;;;;;;;2.21;100.00;100362.28;5010484;28;20025;-69
2023/11/20 01:24:23;;;;;;;10.38;6.80;;;;;;;2.01;100.00;100332.91;5013224;28;20058;-69
2023/11/20 01:26:49;;;;;;;9.68;6.25;;;;;;;2.12;100.00;100362.53;5013129;28;20105;-70
2023/11/20 01:29:15;;;;;;;10.35;6.30;;;;;;;1.88;100.00;100326.06;5013331;28;20124;-74
2023/11/20 01:31:40;;;;;;;9.10;6.22;;;;;;;1.95;100.00;100343.53;5012862;28;20458;-71
2023/11/20 01:34:06;;;;;;;11.95;6.15;;;;;;;1.90;100.00;100340.66;5013752;28;20109;-70
2023/11/20 01:36:31;;;;;;;8.70;5.97;;;;;;;1.73;100.00;100333.53;5013030;28;20411;-69
2023/11/20 01:38:57;;;;;;;9.80;5.97;;;;;;;1.72;100.00;100336.84;5012826;28;20026;-68
2023/11/20 01:41:22;;;;;;;9.77;6.63;;;;;;;1.73;100.00;100338.63;5012754;28;20412;-68
2023/11/20 01:43:48;;;;;;;9.57;6.30;;;;;;;1.59;100.00;100312.19;5013235;28;20377;-68
2023/11/20 01:46:14;;;;;;;9.23;5.95;;;;;;;1.59;100.00;100325.78;5012432;28;20026;-66
2023/11/20 01:48:41;;;;;;;9.77;6.30;;;;;;;1.57;100.00;100331.56;5013044;28;20026;-69
2023/11/20 01:51:07;;;;;;;10.73;7.13;;;;;;;1.48;100.00;100326.69;5012657;28;20468;-69
2023/11/20 01:53:35;;;;;;;11.73;7.50;;;;;;;1.39;100.00;100324.38;5012923;28;20041;-69
2023/11/20 01:56:02;;;;;;;12.03;7.53;;;;;;;1.29;100.00;100320.31;5012737;28;20029;-73
2023/11/20 01:58:28;;;;;;;12.32;8.18;;;;;;;1.25;100.00;100313.25;5011306;28;20048;-69
2023/11/20 02:00:54;;;;;;;12.20;8.18;;;;;;;1.14;100.00;100286.16;5012328;28;20857;-68
2023/11/20 02:03:20;;;;;;;12.48;8.43;;;;;;;1.24;100.00;100323.31;5012046;28;20038;-72
2023/11/20 02:05:46;;;;;;;13.27;7.90;;;;;;;1.35;100.00;100327.50;5010479;28;20031;-68
2023/11/20 02:08:13;;;;;;;13.25;8.10;;;;;;;1.38;100.00;100345.50;5013675;28;20050;-68
2023/11/20 02:10:39;;;;;;;13.33;9.23;;;;;;;1.27;100.00;100336.22;5012078;28;20025;-68
2023/11/20 02:13:06;;;;;;;13.88;8.50;;;;;;;1.44;100.00;100345.94;5012243;28;20495;-71
2023/11/20 02:15:32;;;;;;;13.20;8.98;;;;;;;1.06;100.00;100260.19;5011985;28;20539;-70
2023/11/20 02:17:57;;;;;;;13.60;8.30;;;;;;;1.54;100.00;100341.53;5012182;28;20038;-69
2023/11/20 02:20:24;;;;;;;12.43;8.48;;;;;;;1.73;100.00;100362.41;5012096;28;20040;-74
2023/11/20 02:22:49;;;;;;;12.82;8.10;;;;;;;1.66;100.00;100332.22;5010958;28;20030;-70
2023/11/20 02:25:17;;;;;;;13.98;8.40;;;;;;;1.89;100.00;100363.47;5010210;28;20484;-72
2023/11/20 02:27:59;;;;;;;14.10;8.50;;;;;;;1.92;100.00;100348.44;5011917;28;20022;-70
2023/11/20 02:30:27;;;;;;;12.35;8.15;;;;;;;1.89;100.00;100350.75;5011640;28;20121;-70
2023/11/20 02:32:52;;;;;;;12.82;9.07;;;;;;;1.53;100.00;100319.41;5009557;28;20034;-68
2023/11/20 02:35:18;;;;;;;17.48;10.35;;;;;;;1.52;100.00;100343.06;5012058;28;20056;-68
2023/11/20 02:37:45;;;;;;;14.07;9.35;;;;;;;0.50;100.00;100168.06;5025684;28;20161;-69
2023/11/20 02:40:10;;;;;;;13.55;9.65;;;;;;;1.34;100.00;100329.94;5025585;28;20488;-70
2023/11/20 02:42:36;;;;;;;14.25;9.65;;;;;;;1.40;100.00;100323.63;5010919;28;20036;-68
2023/11/20 02:45:02;;;;;;;14.60;8.98;;;;;;;1.44;100.00;100350.16;5011524;28;20033;-69
2023/11/20 02:47:28;;;;;;;14.70;9.95;;;;;;;1.22;100.00;100313.03;5011418;28;20473;-72
2023/11/20 02:49:53;;;;;;;12.35;8.88;;;;;;;1.46;100.00;100358.81;5011550;28;20041;-73
2023/11/20 02:52:19;;;;;;;13.40;9.43;;;;;;;1.07;100.00;100261.06;5011575;28;20034;-70
2023/11/20 02:54:44;;;;;;;17.02;10.52;;;;;;;1.72;100.00;100340.28;5011147;28;20049;-72
2023/11/20 02:57:10;;;;;;;28.52;15.35;;;;;;;1.78;100.00;100334.72;5010893;28;20092;-69
2023/11/20 02:59:35;;;;;;;25.55;14.45;;;;;;;1.92;100.00;100336.59;5011349;28;20034;-69
2023/11/20 03:02:01;;;;;;;22.77;12.50;;;;;;;2.03;100.00;100329.69;5011196;28;20519;-69
2023/11/20 03:04:27;;;;;;;24.88;12.88;;;;;;;2.05;100.00;100314.50;5011694;28;20022;-69
2023/11/20 03:06:52;;;;;;;17.42;12.02;;;;;;;2.02;100.00;100297.38;5011048;28;20029;-69
2023/11/20 03:09:18;;;;;;;15.73;10.25;;;;;;;2.12;100.00;100300.53;5011377;28;20050;-69
2023/11/20 03:11:45;;;;;;;14.70;10.27;;;;;;;2.14;100.00;100299.84;5011035;28;20040;-69
2023/11/20 03:14:12;;;;;;;14.30;9.18;;;;;;;2.09;100.00;100291.00;5011410;28;20038;-73
2023/11/20 03:16:38;;;;;;;13.05;9.43;;;;;;;2.14;100.00;100286.25;5008332;28;20052;-69
2023/11/20 03:19:05;;;;;;;12.48;8.68;;;;;;;2.15;100.00;100288.00;5010789;28;20057;-74
2023/11/20 03:21:33;;;;;;;15.75;9.18;;;;;;;2.26;100.00;100302.34;5010810;28;20037;-70
2023/11/20 03:23:59;;;;;;;12.52;8.13;;;;;;;2.05;100.00;100284.81;5001993;28;20042;-70
2023/11/20 03:26:25;;;;;;;14.68;9.90;;;;;;;1.20;100.00;100153.50;5006239;28;20545;-68
2023/11/20 03:28:51;;;;;;;13.75;9.15;;;;;;;2.12;100.00;100297.97;5010795;28;20025;-69
2023/11/20 03:31:17;;;;;;;15.27;9.68;;;;;;;2.09;100.00;100299.56;5010926;28;20471;-69
2023/11/20 03:33:46;;;;;;;15.13;9.43;;;;;;;1.92;100.00;100266.97;5011020;28;20034;-70
2023/11/20 03:36:15;;;;;;;14.07;9.20;;;;;;;2.14;100.00;100293.88;5007853;28;20042;-70
2023/11/20 03:38:44;;;;;;;12.88;9.05;;;;;;;2.15;100.00;100280.38;5000169;28;20029;-69
2023/11/20 03:41:09;;;;;;;13.23;8.88;;;;;;;1.64;100.00;100247.25;5010248;28;20530;-68
2023/11/20 03:43:35;;;;;;;13.90;9.50;;;;;;;1.82;100.00;100287.47;5010602;28;20037;-73
2023/11/20 03:46:01;;;;;;;15.18;10.27;;;;;;;1.82;100.00;100268.00;5010106;28;20037;-68
2023/11/20 03:48:26;;;;;;;11.95;8.90;;;;;;;1.84;100.00;100270.66;5010627;28;20037;-69
2023/11/20 03:50:52;;;;;;;15.23;10.20;;;;;;;1.38;100.00;100176.75;5010852;28;20114;-70
2023/11/20 03:53:18;;;;;;;12.18;8.93;;;;;;;1.86;100.00;100264.88;5009360;28;20412;-68
2023/11/20 03:55:43;;;;;;;14.05;9.90;;;;;;;1.87;100.00;100264.09;5009322;28;20471;-69
2023/11/20 03:58:08;;;;;;;14.00;9.57;;;;;;;1.75;100.00;100225.09;5009161;28;20096;-69
2023/11/20 04:00:34;;;;;;;16.63;10.65;;;;;;;2.03;100.00;100260.94;5010130;28;20084;-70
2023/11/20 04:02:59;;;;;;;15.45;9.93;;;;;;;2.09;100.00;100246.06;5008207;28;20033;-69
2023/11/20 04:05:25;;;;;;;15.05;10.00;;;;;;;2.03;100.00;100249.84;4998521;28;20022;-69
2023/11/20 04:07:51;;;;;;;15.23;10.45;;;;;;;1.81;100.00;100232.25;5008159;28;20077;-70
2023/11/20 04:10:16;;;;;;;14.93;9.57;;;;;;;1.90;100.00;100271.06;5010067;28;20097;-68
2023/11/20 04:12:44;;;;;;;13.32;10.13;;;;;;;1.87;100.00;100259.00;5010021;28;20060;-69
2023/11/20 04:15:11;;;;;;;15.32;10.07;;;;;;;1.97;100.00;100268.16;5010327;28;20029;-69
2023/11/20 04:17:37;;;;;;;13.10;9.43;;;;;;;1.34;100.00;100159.53;5009871;28;20053;-70
2023/11/20 04:20:03;;;;;;;15.82;9.80;;;;;;;1.99;100.00;100265.72;5009928;28;20065;-69
2023/11/20 04:22:29;;;;;;;14.93;9.93;;;;;;;1.57;100.00;100182.34;5009392;28;20026;-70
2023/11/20 04:24:54;;;;;;;14.43;10.05;;;;;;;1.77;100.00;100229.50;5008941;28;20029;-69
2023/11/20 04:27:20;;;;;;;14.25;9.50;;;;;;;1.54;100.00;100204.13;5010042;28;20021;-68
2023/11/20 04:29:45;;;;;;;14.60;9.75;;;;;;;1.36;100.00;100186.84;5010142;28;20030;-69
2023/11/20 04:32:11;;;;;;;14.20;9.57;;;;;;;1.34;100.00;100216.34;5010133;28;20472;-70
2023/11/20 04:34:36;;;;;;;15.17;10.17;;;;;;;1.36;100.00;100247.88;5008035;28;20113;-67
2023/11/20 04:37:02;;;;;;;17.60;10.80;;;;;;;1.25;100.00;100251.34;5025620;28;20034;-69
2023/11/20 04:39:27;;;;;;;13.23;9.17;;;;;;;1.23;100.00;100245.25;5010094;28;20033;-68
2023/11/20 04:41:53;;;;;;;15.07;9.73;;;;;;;1.06;100.00;100214.44;5010297;28;20022;-70
2023/11/20 04:44:18;;;;;;;13.90;9.07;;;;;;;1.16;100.00;100241.41;5010121;28;20563;-68
2023/11/20 04:46:44;;;;;;;14.87;8.90;;;;;;;0.60;100.00;100140.03;5004396;28;20030;-71
2023/11/20 04:49:10;;;;;;;12.13;8.17;;;;;;;0.57;100.00;100148.28;5003899;28;20030;-69
2023/11/20 04:51:35;;;;;;;12.83;8.30;;;;;;;1.20;100.00;100253.53;5004566;28;20026;-69
2023/11/20 04:54:01;;;;;;;13.00;8.18;;;;;;;1.26;100.00;100266.69;5005333;28;20037;-68
2023/11/20 04:56:26;;;;;;;12.43;7.47;;;;;;;1.42;100.00;100286.47;5013573;28;20037;-69
2023/11/20 04:58:52;;;;;;;14.93;8.35;;;;;;;1.47;100.00;100263.91;5013356;28;20125;-70
2023/11/20 05:01:17;;;;;;;11.70;7.72;;;;;;;1.61;100.00;100273.38;5014843;28;20053;-69
2023/11/20 05:03:43;;;;;;;12.82;7.53;;;;;;;1.71;100.00;100279.09;5006833;28;20057;-70
2023/11/20 05:06:10;;;;;;;10.45;7.15;;;;;;;1.18;100.00;100173.72;5000533;28;20058;-69
2023/11/20 05:08:37;;;;;;;13.90;7.45;;;;;;;1.66;100.00;100260.97;5001993;28;20059;-70
2023/11/20 05:11:03;;;;;;;12.95;7.78;;;;;;;1.73;100.00;100272.44;4998318;28;20036;-69
2023/11/20 05:13:29;;;;;;;11.80;8.10;;;;;;;1.72;100.00;100270.66;5001061;28;20109;-69
2023/11/20 05:15:54;;;;;;;13.75;8.63;;;;;;;1.62;100.00;100281.91;5008329;28;20400;-69
2023/11/20 05:18:20;;;;;;;15.18;9.50;;;;;;;1.53;100.00;100266.84;5013784;28;20036;-70
2023/11/20 05:20:46;;;;;;;13.30;8.93;;;;;;;1.45;100.00;100268.00;5007296;28;20034;-68
2023/11/20 05:23:11;;;;;;;14.13;8.70;;;;;;;1.26;100.00;100248.03;5010065;28;20037;-69
2023/11/20 05:25:37;;;;;;;14.40;9.18;;;;;;;1.53;100.00;100292.28;5010436;28;20030;-66
2023/11/20 05:28:03;;;;;;;19.02;11.48;;;;;;;1.57;100.00;100288.31;5005383;28;20040;-69
2023/11/20 05:30:28;;;;;;;17.48;11.25;;;;;;;1.58;100.00;100284.97;5012869;28;20061;-68
2023/11/20 05:32:54;;;;;;;17.88;9.73;;;;;;;1.09;100.00;100213.75;5013509;28;20029;-68
2023/11/20 05:35:21;;;;;;;19.17;10.10;;;;;;;1.60;100.00;100288.53;5012611;28;20029;-69
2023/11/20 05:37:46;;;;;;;14.57;9.93;;;;;;;0.07;100.00;100060.09;5011730;28;20120;-69
2023/11/20 05:40:13;;;;;;;20.80;13.27;;;;;;;1.25;100.00;100241.16;5013160;28;20136;-68
2023/11/20 05:42:40;;;;;;;23.02;13.23;;;;;;;1.42;100.00;100255.03;5013341;28;20029;-67
2023/11/20 05:45:07;;;;;;;22.85;12.88;;;;;;;1.63;100.00;100285.31;5013083;28;20104;-73
2023/11/20 05:47:32;;;;;;;18.70;11.98;;;;;;;1.78;100.00;100283.81;5012939;28;20640;-69
2023/11/20 05:49:58;;;;;;;16.25;9.85;;;;;;;1.87;100.00;100287.00;5013162;28;20116;-69
2023/11/20 05:52:25;;;;;;;13.80;9.77;;;;;;;1.97;100.00;100288.53;5014365;28;20114;-68
2023/11/20 05:54:51;;;;;;;12.25;8.60;;;;;;;2.03;100.00;100283.84;5012543;28;20029;-70
2023/11/20 05:57:21;;;;;;;12.20;9.30;;;;;;;1.89;100.00;100259.09;5014778;28;20037;-69
2023/11/20 05:59:47;;;;;;;14.60;8.48;;;;;;;2.01;100.00;100277.75;5011512;28;20053;-69
2023/11/20 06:02:12;;;;;;;13.82;8.43;;;;;;;1.59;100.00;100215.50;5012483;28;20057;-69
2023/11/20 06:04:38;;;;;;;11.90;7.80;;;;;;;1.39;100.00;100196.34;5026184;28;20048;-68
2023/11/20 06:07:04;;;;;;;10.88;6.70;;;;;;;1.91;100.00;100296.63;5012487;28;20018;-71
2023/11/20 06:09:30;;;;;;;14.90;9.30;;;;;;;2.06;100.00;100308.66;5027033;28;20054;-69
2023/11/20 06:11:55;;;;;;;12.95;8.90;;;;;;;2.12;100.00;100296.34;5012400;28;20223;-69
2023/11/20 06:14:21;;;;;;;12.45;7.93;;;;;;;2.08;100.00;100294.34;5012706;28;20104;-70
2023/11/20 06:16:47;;;;;;;14.30;8.80;;;;;;;2.20;100.00;100296.84;5010988;28;20049;-70
2023/11/20 06:19:13;;;;;;;13.57;9.13;;;;;;;2.26;100.00;100294.72;5011355;28;20022;-68
2023/11/20 06:21:51;;;;;;;15.90;10.15;;;;;;;2.29;100.00;100279.63;5009097;28;20038;-69
2023/11/20 06:24:17;;;;;;;14.38;10.25;;;;;;;2.42;100.00;100294.94;5003850;28;20095;-70
2023/11/20 06:26:42;;;;;;;15.18;9.35;;;;;;;2.54;100.00;100288.91;5011682;28;20038;-69
2023/11/20 06:29:09;;;;;;;13.10;9.10;;;;;;;2.78;100.00;100298.94;5011826;28;20033;-68
2023/11/20 06:31:35;;;;;;;13.52;8.73;;;;;;;3.02;100.00;100310.72;5011587;28;20095;-72
2023/11/20 06:34:00;;;;;;;15.20;9.23;;;;;;;3.04;100.00;100291.31;5010991;28;20484;-68
2023/11/20 06:36:26;;;;;;;12.77;8.68;;;;;;;3.14;100.00;100287.69;5011783;28;20668;-69
2023/11/20 06:38:52;;;;;;;14.30;8.80;;;;;;;3.21;100.00;100276.19;5010257;28;20018;-68
2023/11/20 06:41:18;;;;;;;13.43;8.32;;;;;;;3.45;100.00;100293.84;5011711;28;20420;-68
2023/11/20 06:43:44;;;;;;;15.55;9.45;;;;;;;3.53;100.00;100290.97;5011849;28;20038;-69
2023/11/20 06:46:17;;;;;;;12.13;8.07;;;;;;;3.04;100.00;100198.59;5011452;28;20065;-70
2023/11/20 06:48:42;;;;;;;10.90;7.97;;;;;;;3.78;99.77;100297.59;5010518;28;20443;-72
2023/11/20 06:51:08;;;;;;;11.55;8.00;;;;;;;3.80;99.37;100278.16;5011156;28;20034;-71
2023/11/20 06:53:34;;;;;;;11.40;7.80;;;;;;;4.09;97.49;100301.13;5011476;28;20034;-68
2023/11/20 06:56:01;;;;;;;14.65;7.22;;;;;;;4.08;97.74;100282.38;5011690;28;20029;-69
2023/11/20 06:58:26;;;;;;;10.07;7.28;;;;;;;4.33;97.61;100301.72;5011271;28;20167;-69
2023/11/20 07:00:51;;;;;;;10.95;6.82;;;;;;;4.27;96.96;100263.03;5010873;28;20025;-68
2023/11/20 07:03:19;;;;;;;10.90;6.03;;;;;;;4.79;96.00;100301.84;5011784;28;20034;-70
2023/11/20 07:05:47;;;;;;;9.35;6.30;;;;;;;4.98;95.56;100283.28;5009715;28;20045;-68
2023/11/20 07:08:15;;;;;;;9.25;6.25;;;;;;;4.98;95.87;100267.94;5027600;28;20038;-69
2023/11/20 07:10:40;;;;;;;11.40;7.15;;;;;;;5.25;95.92;100285.63;5019111;28;20045;-69
2023/11/20 07:13:06;;;;;;;9.13;5.80;;;;;;;5.26;94.59;100254.13;5027918;28;20087;-70
2023/11/20 07:15:32;;;;;;;8.93;5.70;;;;;;;5.15;94.23;100193.81;5028208;28;20033;-68
2023/11/20 07:17:59;;;;;;;10.90;5.93;;;;;;;5.77;93.86;100268.75;5028361;28;20036;-71
2023/11/20 07:20:25;;;;;;;7.78;5.50;;;;;;;6.06;93.54;100289.97;5014889;28;20034;-71
2023/11/20 07:22:50;;;;;;;7.35;4.70;;;;;;;6.02;91.28;100259.81;5017581;28;20032;-74
2023/11/20 07:25:15;;;;;;;6.28;4.53;;;;;;;6.29;90.34;100270.63;4997988;28;20022;-69
2023/11/20 07:27:41;;;;;;;7.32;4.22;;;;;;;6.23;91.09;100260.94;5024852;28;20033;-72
2023/11/20 07:30:09;;;;;;;5.78;3.78;;;;;;;6.43;89.58;100266.19;5027645;28;20112;-72
2023/11/20 07:32:35;;;;;;;8.23;4.40;;;;;;;6.64;88.27;100257.00;5027810;28;20071;-72
2023/11/20 07:35:04;;;;;;;7.35;4.18;;;;;;;6.96;87.38;100278.22;5027696;28;20030;-67
2023/11/20 07:37:32;;;;;;;5.95;3.67;;;;;;;7.19;85.36;100270.75;5027525;28;20164;-68
2023/11/20 07:40:07;;;;;;;5.53;3.60;;;;;;;7.32;84.77;100290.19;5027803;28;20037;-68
2023/11/20 07:42:33;;;;;;;6.80;3.97;;;;;;;7.53;84.33;100277.44;5027259;28;20447;-68
2023/11/20 07:44:58;;;;;;;5.13;3.40;;;;;;;7.32;84.20;100205.44;5022786;28;20048;-70
2023/11/20 07:47:24;;;;;;;5.28;3.35;;;;;;;7.78;83.64;100273.44;5007777;28;20407;-69
2023/11/20 07:49:49;;;;;;;6.90;4.32;;;;;;;7.84;84.16;100263.44;5010065;28;20410;-69
2023/11/20 07:52:15;;;;;;;6.75;4.50;;;;;;;8.11;83.30;100265.44;5009314;28;20108;-71
2023/11/20 07:54:40;;;;;;;5.00;3.22;;;;;;;8.25;82.90;100264.34;5010435;28;20443;-72
2023/11/20 07:57:08;;;;;;;5.35;3.42;;;;;;;8.49;80.99;100265.38;5008201;28;20518;-71
2023/11/20 07:59:33;;;;;;;5.72;3.65;;;;;;;8.62;79.75;100272.78;5010710;28;20022;-68
2023/11/20 08:01:58;;;;;;;7.53;3.78;;;;;;;8.72;80.38;100280.06;5010808;28;20037;-68
2023/11/20 08:04:24;;;;;;;6.45;3.08;;;;;;;8.81;78.79;100255.50;5010506;28;20490;-71
2023/11/20 08:06:49;;;;;;;5.80;3.75;;;;;;;8.96;78.04;100248.41;5010518;28;20113;-70
2023/11/20 08:09:15;;;;;;;5.00;3.13;;;;;;;9.06;78.37;100260.84;5010692;28;20084;-67
2023/11/20 08:11:41;;;;;;;6.05;3.10;;;;;;;9.25;75.65;100261.56;5010402;28;20482;-68
2023/11/20 08:14:07;;;;;;;4.45;2.80;;;;;;;9.24;74.93;100236.63;5010656;28;20112;-68
2023/11/20 08:16:32;;;;;;;5.55;3.13;;;;;;;9.48;75.35;100233.22;5008187;28;20519;-67
2023/11/20 08:19:00;;;;;;;9.77;3.05;;;;;;;9.54;73.86;100229.19;5010715;28;20036;-68
2023/11/20 08:21:26;;;;;;;4.90;2.75;;;;;;;9.66;74.61;100225.31;5010752;28;20139;-67
2023/11/20 08:23:51;;;;;;;3.75;2.40;;;;;;;9.43;73.61;100142.00;5010370;28;20403;-68
2023/11/20 08:26:17;;;;;;;4.80;2.53;;;;;;;9.97;73.86;100204.06;5010209;28;20029;-67
2023/11/20 08:28:46;;;;;;;5.65;2.80;;;;;;;10.15;72.18;100208.09;5010241;28;20472;-66
2023/11/20 08:31:11;;;;;;;3.78;2.17;;;;;;;10.25;70.18;100206.72;5012207;28;20025;-68
2023/11/20 08:33:37;;;;;;;5.78;2.40;;;;;;;10.31;71.58;100199.19;5014432;28;20029;-68
2023/11/20 08:36:02;;;;;;;3.97;2.20;;;;;;;10.43;70.51;100214.22;5014203;28;20037;-67
2023/11/20 08:38:28;;;;;;;4.60;2.63;;;;;;;10.42;72.44;100200.47;5014301;28;20030;-68
2023/11/20 08:40:53;;;;;;;7.50;2.22;;;;;;;10.42;71.04;100186.66;5014017;28;20060;-68
2023/11/20 08:43:19;;;;;;;4.85;2.35;;;;;;;10.60;71.76;100244.06;5014473;28;20436;-68
2023/11/20 08:45:45;;;;;;;10.43;2.40;;;;;;;10.74;70.78;100221.28;5012138;28;20042;-67
2023/11/20 08:48:10;;;;;;;3.75;2.28;;;;;;;10.48;70.79;100138.72;5014080;28;20116;-68
2023/11/20 08:50:35;;;;;;;6.32;2.22;;;;;;;10.43;71.07;100098.97;5014086;28;20034;-67
2023/11/20 08:53:02;;;;;;;3.95;2.00;;;;;;;10.51;70.81;100099.22;5014035;28;20036;-68
2023/11/20 08:55:28;;;;;;;3.35;2.03;;;;;;;11.07;71.19;100168.91;5013783;28;20022;-68
2023/11/20 08:57:53;;;;;;;2.90;2.00;;;;;;;11.01;70.90;100140.31;5014216;28;20033;-67
2023/11/20 09:00:19;;;;;;;3.22;1.80;;;;;;;11.38;71.13;100167.22;5014335;28;20399;-67
2023/11/20 09:02:44;;;;;;;2.80;1.60;;;;;;;11.55;70.46;100161.66;5014075;28;20049;-67
2023/11/20 09:05:12;;;;;;;3.25;1.90;;;;;;;11.58;69.06;100115.22;5013960;28;20499;-70
2023/11/20 09:07:41;;;;;;;2.45;1.55;;;;;;;11.97;68.99;100145.59;5013673;28;20033;-68
2023/11/20 09:10:08;;;;;;;3.25;1.58;;;;;;;12.19;69.82;100130.63;5014011;28;20029;-69
2023/11/20 09:12:35;;;;;;;5.43;2.00;;;;;;;12.43;69.52;100130.34;5013817;28;20038;-73
2023/11/20 09:15:00;;;;;;;2.65;1.60;;;;;;;12.58;68.16;100109.97;5013832;28;20498;-68
2023/11/20 09:17:26;;;;;;;2.22;1.08;;;;;;;12.80;66.97;100105.28;5013691;28;20037;-68
2023/11/20 09:19:51;;;;;;;2.33;1.30;;;;;;;13.11;65.20;100100.75;5013485;28;20068;-68
2023/11/20 09:22:17;;;;;;;2.65;1.40;;;;;;;13.16;68.07;100087.88;5013700;28;20079;-68
2023/11/20 09:24:42;;;;;;;3.25;1.50;;;;;;;13.38;66.80;100105.66;5013658;28;20109;-68
2023/11/20 09:27:10;;;;;;;4.50;1.60;;;;;;;13.41;69.86;100084.09;5013578;28;20103;-67
2023/11/20 09:29:36;;;;;;;3.78;2.08;;;;;;;13.58;68.53;100089.59;5013352;28;20514;-68
2023/11/20 09:32:02;;;;;;;6.97;2.70;;;;;;;13.83;66.71;100090.91;5013496;28;20030;-71
2023/11/20 09:34:27;;;;;;;6.00;1.38;;;;;;;14.11;65.48;100073.22;5013479;28;20026;-71
2023/11/20 09:36:53;;;;;;;8.40;4.05;;;;;;;14.38;62.80;100083.16;5013255;28;20451;-69
2023/11/20 09:39:19;;;;;;;3.97;1.90;;;;;;;14.54;63.62;100083.38;5013324;28;20472;-68
2023/11/20 09:41:45;;;;;;;4.28;2.13;;;;;;;14.22;62.07;100019.72;5013103;28;20032;-68
2023/11/20 09:44:12;;;;;;;1.50;1.17;;;;;;;14.43;62.13;100084.94;5013165;28;20025;-69
2023/11/20 09:46:43;;;;;;;2.72;1.08;;;;;;;14.36;62.85;100079.66;5013144;28;20065;-67
2023/11/20 09:49:10;;;;;;;1.58;0.95;;;;;;;14.28;63.34;100075.19;5013027;28;20105;-70
2023/11/20 09:51:36;;;;;;;5.63;1.63;;;;;;;13.75;65.15;100001.69;5013036;28;20042;-68
2023/11/20 09:54:08;;;;;;;8.43;1.42;;;;;;;14.14;64.79;100057.66;5012928;28;20029;-68
2023/11/20 09:56:36;;;;;;;2.70;1.23;;;;;;;14.20;64.55;100067.28;5013061;28;20083;-69
2023/11/20 09:59:03;;;;;;;2.72;1.35;;;;;;;14.41;63.43;100074.53;5012736;28;20026;-68
2023/11/20 10:01:29;;;;;;;3.38;1.35;;;;;;;14.71;62.87;100065.47;5012903;28;20022;-68
2023/11/20 10:03:56;;;;;;;4.90;1.85;;;;;;;14.86;62.53;100051.78;5012088;28;20030;-70
2023/11/20 10:06:25;;;;;;;4.18;1.13;;;;;;;14.92;61.06;100041.47;5026872;28;20111;-70
2023/11/20 10:08:51;;;;;;;22.60;2.05;;;;;;;14.51;60.98;99972.50;5012709;28;20539;-68
2023/11/20 10:11:21;;;;;;;2.78;1.10;;;;;;;15.17;60.00;100039.16;5027149;28;20057;-68
2023/11/20 10:13:46;;;;;;;2.45;1.05;;;;;;;15.07;60.68;99967.13;5012755;28;20044;-69
2023/11/20 10:16:26;;;;;;;3.00;0.98;;;;;;;15.68;58.30;100035.34;5012527;28;20018;-68
2023/11/20 10:18:52;;;;;;;2.25;1.00;;;;;;;15.79;59.45;100030.22;5012404;28;20048;-67
2023/11/20 10:21:21;;;;;;;2.22;0.90;;;;;;;15.93;59.63;100032.97;5012284;28;20026;-67
2023/11/20 10:23:54;;;;;;;2.77;0.80;;;;;;;16.22;57.78;100034.91;5012540;28;20053;-69
2023/11/20 10:26:21;;;;;;;3.67;1.50;;;;;;;16.23;57.20;100026.25;5011132;28;20040;-68
2023/11/20 10:28:46;;;;;;;1.33;1.00;;;;;;;16.37;58.54;100020.25;5012322;28;20120;-68
2023/11/20 10:31:12;;;;;;;2.67;1.00;;;;;;;16.43;55.85;100005.53;5012112;28;20188;-69
2023/11/20 10:33:37;;;;;;;1.58;0.90;;;;;;;16.50;56.49;100002.09;5012283;28;20021;-68
2023/11/20 10:36:14;;;;;;;5.15;1.33;;;;;;;16.51;56.78;100008.19;5012379;28;20034;-69
2023/11/20 10:38:41;;;;;;;1.48;0.73;;;;;;;16.55;55.38;99993.41;5012195;28;20088;-66
2023/11/20 10:41:13;;;;;;;1.80;1.20;;;;;;;16.17;56.03;99916.81;5012128;28;20044;-70
2023/11/20 10:43:40;;;;;;;1.23;0.80;;;;;;;16.70;55.81;99988.28;5012491;28;20396;-68
2023/11/20 10:46:06;;;;;;;2.83;1.10;;;;;;;16.45;57.19;99935.22;5012174;28;20034;-70
2023/11/20 10:48:36;;;;;;;0.85;0.70;;;;;;;16.83;53.30;100007.44;5012125;28;20033;-67
2023/11/20 10:51:07;;;;;;;1.40;0.93;;;;;;;16.77;54.06;99981.34;5011765;28;20116;-69
2023/11/20 10:53:41;;;;;;;0.70;0.68;;;;;;;16.92;53.68;99984.06;5011148;28;20048;-68
2023/11/20 10:56:12;;;;;;;2.30;0.85;;;;;;;16.97;53.91;99986.66;5011607;28;20050;-70
2023/11/20 10:58:40;;;;;;;3.78;1.95;;;;;;;17.10;54.60;99983.22;5011693;28;20496;-68
2023/11/20 11:01:07;;;;;;;2.25;1.40;;;;;;;17.42;53.62;99986.75;5011750;28;20037;-72
2023/11/20 11:03:34;;;;;;;2.08;0.93;;;;;;;17.38;53.81;99993.72;5011694;28;20030;-67
2023/11/20 11:06:08;;;;;;;1.77;0.80;;;;;;;17.28;52.59;99990.25;5006451;28;20037;-67
2023/11/20 11:08:36;;;;;;;1.92;0.70;;;;;;;17.18;53.52;99992.81;4994038;28;20058;-69
2023/11/20 11:11:03;;;;;;;1.98;1.27;;;;;;;17.19;53.92;99987.59;4992267;28;20031;-68
2023/11/20 11:13:33;;;;;;;2.25;0.88;;;;;;;17.25;53.31;100003.25;4991912;28;20031;-68
2023/11/20 11:16:00;;;;;;;1.40;0.80;;;;;;;17.34;53.66;100007.63;4992075;28;20022;-66
2023/11/20 11:18:28;;;;;;;1.65;0.90;;;;;;;17.27;53.75;99988.50;4992019;28;20456;-68